Time;durP1;ratioP1;P1;durP2;ratioP2;P2;SDS_P1;SDS_P2;PMS_P1;PMS_P2;Temp;Humidity;BMP_temperature;BMP_pressure;BME280_temperature;BME280_humidity;BME280_pressure;Samples;Min_cycle;Max_cycle;Signal;HPM_P1;HPM_P2
2022/01/10 00:04:40;;;;;;;58.77;31.80;;;6.90;99.90;;;;;;10204162;29;20282;-89
2022/01/10 00:09:43;;;;;;;43.23;22.37;;;6.10;93.80;;;;;;10204161;29;20278;-88
2022/01/10 00:14:46;;;;;;;45.73;25.07;;;7.70;99.90;;;;;;10190794;29;20646;-88
2022/01/10 00:19:48;;;;;;;44.43;23.90;;;8.00;97.90;;;;;;10212275;29;20243;-88
2022/01/10 00:24:51;;;;;;;43.80;25.87;;;7.70;96.40;;;;;;10213687;29;20767;-89
2022/01/10 00:29:53;;;;;;;38.57;23.30;;;8.10;96.70;;;;;;10213230;29;20238;-89
2022/01/10 00:34:56;;;;;;;38.40;22.20;;;8.20;96.00;;;;;;10187728;29;20263;-90
2022/01/10 00:39:58;;;;;;;43.90;21.93;;;8.20;96.60;;;;;;10190282;29;20306;-89
2022/01/10 00:45:07;;;;;;;45.80;25.57;;;8.70;95.40;;;;;;10211562;29;20254;-88
2022/01/10 00:50:10;;;;;;;40.13;23.30;;;8.40;94.50;;;;;;10211411;29;20247;-89
2022/01/10 00:55:13;;;;;;;48.83;25.50;;;8.30;96.10;;;;;;10211010;29;20266;-89
2022/01/10 01:00:17;;;;;;;57.83;30.73;;;8.30;94.60;;;;;;10226179;28;20235;-89
2022/01/10 01:05:20;;;;;;;39.00;22.77;;;7.90;95.70;;;;;;10194510;29;20260;-89
2022/01/10 01:26:24;;;;;;;38.40;22.73;;;9.00;94.20;;;;;;10208329;29;20238;-89
2022/01/10 01:31:27;;;;;;;35.63;20.03;;;9.00;93.60;;;;;;10208683;29;20298;-89
2022/01/10 01:36:31;;;;;;;43.97;26.50;;;8.60;94.40;;;;;;10209714;29;20579;-89
2022/01/10 01:41:35;;;;;;;82.83;43.93;;;8.50;93.40;;;;;;10210988;29;20242;-89
2022/01/10 01:46:38;;;;;;;36.40;20.60;;;5.70;79.20;;;;;;10209210;29;20301;-89
2022/01/10 01:51:42;;;;;;;54.63;27.77;;;6.70;99.90;;;;;;10209955;29;20263;-89
2022/01/10 01:56:46;;;;;;;44.40;24.00;;;7.60;95.60;;;;;;10208563;29;20266;-89
2022/01/10 02:01:49;;;;;;;38.40;22.30;;;8.40;95.40;;;;;;10201589;29;20246;-89
2022/01/10 02:06:51;;;;;;;44.87;25.17;;;9.20;94.20;;;;;;10207997;29;20274;-89
2022/01/10 02:11:54;;;;;;;68.57;34.83;;;7.70;94.10;;;;;;10207951;29;20297;-89
2022/01/10 02:16:57;;;;;;;39.07;23.60;;;6.40;91.30;;;;;;10208942;29;20266;-89
2022/01/10 02:22:20;;;;;;;48.87;27.17;;;7.70;96.80;;;;;;10209463;29;20246;-88
2022/01/10 02:27:45;;;;;;;32.70;18.80;;;8.40;85.60;;;;;;10208597;29;20686;-89
2022/01/10 02:32:48;;;;;;;59.07;31.37;;;9.30;93.50;;;;;;10209041;29;20230;-89
2022/01/10 02:37:53;;;;;;;47.97;27.93;;;7.20;85.70;;;;;;10192649;29;20219;-89
2022/01/10 02:42:56;;;;;;;45.00;25.13;;;6.90;93.70;;;;;;10209355;29;20211;-89
2022/01/10 02:47:59;;;;;;;39.07;22.53;;;7.30;96.00;;;;;;10210390;29;20230;-88
2022/01/10 02:53:02;;;;;;;38.23;21.00;;;5.50;99.90;;;;;;10209233;29;20305;-89
2022/01/10 02:58:07;;;;;;;57.77;31.80;;;6.20;99.90;;;;;;10192585;29;20231;-89
2022/01/10 03:03:11;;;;;;;39.93;20.47;;;6.40;82.90;;;;;;10207380;29;20227;-88
2022/01/10 03:08:14;;;;;;;38.37;20.70;;;7.00;99.90;;;;;;10206997;29;20215;-88
2022/01/10 03:13:16;;;;;;;59.73;32.60;;;8.50;97.10;;;;;;10224282;29;20231;-87
2022/01/10 03:18:19;;;;;;;36.43;22.07;;;8.00;84.20;;;;;;10208098;29;20240;-88
2022/01/10 03:23:22;;;;;;;57.87;31.60;;;7.90;96.50;;;;;;10208048;29;20215;-87
2022/01/10 03:28:24;;;;;;;47.80;26.50;;;7.90;83.90;;;;;;10226356;29;20199;-87
2022/01/10 03:33:27;;;;;;;39.33;20.13;;;8.20;92.20;;;;;;10211060;29;20230;-89
2022/01/10 03:38:30;;;;;;;47.77;29.57;;;9.00;93.70;;;;;;10198596;29;20261;-89
2022/01/10 03:43:32;;;;;;;60.43;34.83;;;8.80;90.90;;;;;;10213678;29;20266;-88
2022/01/10 03:48:36;;;;;;;39.37;20.80;;;7.60;84.20;;;;;;10218631;29;20215;-87
2022/01/10 03:53:39;;;;;;;33.53;20.03;;;9.00;94.00;;;;;;10226646;29;20230;-89
2022/01/10 03:58:42;;;;;;;55.67;29.83;;;8.90;93.80;;;;;;10198154;29;20650;-89
2022/01/10 04:03:45;;;;;;;46.00;26.03;;;9.40;88.80;;;;;;10213829;29;20266;-88
2022/01/10 04:08:49;;;;;;;36.00;20.30;;;8.80;91.80;;;;;;10193827;29;20240;-88
2022/01/10 04:13:52;;;;;;;54.73;28.03;;;9.70;92.50;;;;;;10214767;29;20653;-89
2022/01/10 04:18:55;;;;;;;34.93;20.53;;;10.20;87.60;;;;;;10213857;29;20206;-89
2022/01/10 04:23:58;;;;;;;52.57;29.23;;;10.80;90.00;;;;;;10213058;29;20215;-89
2022/01/10 04:29:01;;;;;;;36.33;20.80;;;10.80;86.60;;;;;;10212491;29;20243;-89
2022/01/10 04:34:04;;;;;;;65.67;37.83;;;10.00;88.40;;;;;;10212515;29;20259;-88
2022/01/10 04:39:07;;;;;;;49.97;26.43;;;8.20;81.30;;;;;;10195911;29;20211;-89
2022/01/10 04:44:10;;;;;;;47.67;25.53;;;8.20;92.80;;;;;;10188540;29;20215;-89
2022/01/10 04:49:21;;;;;;;49.33;25.97;;;8.30;93.30;;;;;;10216946;28;20644;-89
2022/01/10 04:54:24;;;;;;;37.90;22.20;;;8.40;93.80;;;;;;10211397;29;20286;-89
2022/01/10 04:59:27;;;;;;;56.10;32.13;;;8.20;93.50;;;;;;10210506;29;20691;-89
2022/01/10 05:04:29;;;;;;;55.53;29.80;;;7.50;93.40;;;;;;10210797;29;20776;-88
2022/01/10 05:09:32;;;;;;;58.70;29.70;;;7.30;94.10;;;;;;10210685;29;20301;-89
2022/01/10 05:14:40;;;;;;;55.73;29.00;;;8.20;95.20;;;;;;10196930;29;20356;-88
2022/01/10 05:19:43;;;;;;;66.10;37.97;;;7.80;91.90;;;;;;10210994;29;20243;-88
2022/01/10 05:24:46;;;;;;;32.17;20.37;;;7.00;93.70;;;;;;10210420;29;20247;-88
2022/01/10 05:29:48;;;;;;;55.23;28.33;;;7.40;98.50;;;;;;10210187;29;20676;-89
2022/01/10 05:34:52;;;;;;;54.60;31.03;;;7.70;96.70;;;;;;10194145;29;20262;-89
2022/01/10 05:39:54;;;;;;;43.47;25.80;;;6.70;94.10;;;;;;10193297;29;20235;-88
2022/01/10 05:44:57;;;;;;;84.50;49.77;;;6.40;97.90;;;;;;10208251;29;20270;-89
2022/01/10 05:50:02;;;;;;;45.90;27.10;;;6.20;97.50;;;;;;10208669;29;20262;-89
2022/01/10 05:55:12;;;;;;;62.57;34.87;;;6.80;99.90;;;;;;10203377;29;20705;-89
2022/01/10 06:00:18;;;;;;;76.97;37.90;;;6.80;96.50;;;;;;10208538;29;20239;-89
2022/01/10 06:05:21;;;;;;;98.03;55.50;;;7.30;96.20;;;;;;10198331;29;20325;-93
2022/01/10 06:10:26;;;;;;;104.90;56.30;;;-3.00;93.20;;;;;;10192590;29;20285;-92
2022/01/10 06:15:35;;;;;;;98.80;48.73;;;-4.50;99.90;;;;;;10210136;29;20259;-92
2022/01/10 06:20:38;;;;;;;60.63;30.73;;;3.50;99.90;;;;;;10188971;29;20233;-87
2022/01/10 06:25:41;;;;;;;70.97;38.30;;;4.30;99.90;;;;;;10207765;29;21280;-86
2022/01/10 06:30:45;;;;;;;69.80;37.97;;;6.70;87.50;;;;;;10208230;29;20267;-86
2022/01/10 06:35:48;;;;;;;100.13;50.97;;;6.90;81.20;;;;;;10205640;29;20313;-86
2022/01/10 06:40:51;;;;;;;83.63;45.13;;;6.30;77.40;;;;;;10206394;29;20344;-86
2022/01/10 06:45:54;;;;;;;154.03;63.87;;;5.70;81.30;;;;;;10190903;29;20242;-86
2022/01/10 06:50:57;;;;;;;83.30;43.37;;;4.10;86.00;;;;;;10207337;29;20234;-86
2022/01/10 06:56:00;;;;;;;83.73;42.30;;;6.20;84.50;;;;;;10204925;29;20647;-86
2022/01/10 07:01:05;;;;;;;78.03;41.73;;;6.80;83.00;;;;;;10211288;29;20672;-88
2022/01/10 07:06:08;;;;;;;107.07;51.57;;;5.60;83.30;;;;;;10166874;29;20831;-86
2022/01/10 07:11:11;;;;;;;99.00;50.07;;;6.10;88.40;;;;;;10203543;29;20266;-86
2022/01/10 07:16:16;;;;;;;110.37;50.57;;;6.50;83.80;;;;;;10208601;29;20254;-89
2022/01/10 07:21:24;;;;;;;113.93;59.53;;;6.70;85.30;;;;;;10198215;29;20199;-90
2022/01/10 07:26:28;;;;;;;99.57;50.80;;;5.10;85.20;;;;;;10209323;29;20278;-93
2022/01/10 07:31:31;;;;;;;89.40;46.73;;;5.40;81.90;;;;;;10208752;29;20671;-93
2022/01/10 07:36:35;;;;;;;65.80;34.30;;;5.60;81.90;;;;;;10208965;29;20295;-92
2022/01/10 07:41:38;;;;;;;69.63;40.33;;;5.90;91.00;;;;;;10205079;29;20648;-92
2022/01/10 07:46:47;;;;;;;74.93;42.00;;;9.10;76.00;;;;;;10207367;29;20211;-91
2022/01/10 07:51:49;;;;;;;79.23;44.23;;;9.30;66.30;;;;;;10208466;29;20243;-92
2022/01/10 07:56:52;;;;;;;87.47;47.03;;;8.10;68.00;;;;;;10208671;29;20258;-93
2022/01/10 08:01:55;;;;;;;74.40;41.40;;;6.50;68.90;;;;;;10208948;29;20748;-92
2022/01/10 08:06:58;;;;;;;78.00;41.60;;;4.90;78.00;;;;;;10192147;29;20234;-93
2022/01/10 08:12:00;;;;;;;76.97;43.17;;;6.00;77.70;;;;;;10208843;29;20262;-93
2022/01/10 08:17:03;;;;;;;69.43;39.80;;;7.10;75.70;;;;;;10208655;29;20619;-91
2022/01/10 08:22:07;;;;;;;79.70;43.50;;;8.30;73.70;;;;;;10208805;29;20247;-92
2022/01/10 08:27:10;;;;;;;76.50;42.57;;;8.30;70.80;;;;;;10208603;29;20279;-93
2022/01/10 08:32:12;;;;;;;92.77;50.33;;;7.50;71.50;;;;;;10208118;29;20297;-93
2022/01/10 08:37:16;;;;;;;74.57;43.10;;;8.00;72.20;;;;;;10214032;29;20242;-93
2022/01/10 08:42:22;;;;;;;86.83;50.30;;;7.10;77.40;;;;;;10215874;29;20708;-92
2022/01/10 08:47:27;;;;;;;87.37;48.50;;;8.10;67.30;;;;;;10213461;29;20215;-92
2022/01/10 08:52:29;;;;;;;63.47;36.17;;;7.90;70.40;;;;;;10214239;29;20270;-92
2022/01/10 08:57:32;;;;;;;76.73;44.87;;;8.00;78.20;;;;;;10213432;29;20262;-92
2022/01/10 09:02:35;;;;;;;83.63;47.30;;;8.40;69.60;;;;;;10213975;29;20262;-92
2022/01/10 09:07:39;;;;;;;77.13;42.13;;;8.80;71.50;;;;;;10213300;29;20242;-91
2022/01/10 09:12:41;;;;;;;86.50;48.73;;;8.50;75.20;;;;;;10213667;29;20313;-92
2022/01/10 09:17:44;;;;;;;72.77;42.57;;;7.90;76.10;;;;;;10212519;29;20289;-93
2022/01/10 09:22:46;;;;;;;65.10;38.00;;;8.10;73.50;;;;;;10212819;29;20242;-92
2022/01/10 09:27:49;;;;;;;95.10;55.47;;;8.50;72.50;;;;;;10211952;29;20242;-92
2022/01/10 09:32:53;;;;;;;59.50;33.97;;;7.50;69.80;;;;;;10213196;29;20318;-92
2022/01/10 09:37:56;;;;;;;67.37;40.97;;;8.80;78.90;;;;;;10211497;29;20215;-92
2022/01/10 09:42:58;;;;;;;99.43;55.43;;;8.80;75.80;;;;;;10211376;29;20242;-92
2022/01/10 09:48:01;;;;;;;61.97;35.67;;;8.90;66.10;;;;;;10240733;28;20755;-92
2022/01/10 09:53:04;;;;;;;90.70;50.83;;;7.70;81.30;;;;;;10209988;29;20751;-92
2022/01/10 09:58:07;;;;;;;61.33;35.13;;;8.10;72.80;;;;;;10210243;29;20219;-91
2022/01/10 10:03:09;;;;;;;67.53;39.73;;;7.60;76.60;;;;;;10210845;29;20330;-92
2022/01/10 10:08:13;;;;;;;73.90;43.17;;;6.90;81.30;;;;;;10210515;29;20242;-91
2022/01/10 10:13:19;;;;;;;66.93;38.90;;;7.40;80.70;;;;;;10210888;29;20286;-90
2022/01/10 10:18:21;;;;;;;58.57;33.53;;;8.50;78.90;;;;;;10240827;28;20242;-91
2022/01/10 10:23:30;;;;;;;60.50;34.77;;;8.60;80.30;;;;;;10209633;29;20243;-91
2022/01/10 10:28:35;;;;;;;55.80;32.60;;;9.00;79.70;;;;;;10210009;29;20712;-92
2022/01/10 10:33:47;;;;;;;67.40;42.60;;;9.70;77.50;;;;;;10208685;29;20258;-91
2022/01/10 10:38:49;;;;;;;63.57;38.17;;;9.80;73.30;;;;;;10209674;29;20275;-91
2022/01/10 10:43:54;;;;;;;63.57;36.50;;;9.70;73.70;;;;;;10209161;29;20247;-91
2022/01/10 10:49:04;;;;;;;54.37;33.63;;;9.20;77.70;;;;;;10209095;29;20690;-91
2022/01/10 10:54:09;;;;;;;62.77;39.53;;;9.90;74.30;;;;;;10208498;29;20650;-91
2022/01/10 10:59:13;;;;;;;82.03;47.63;;;10.30;68.80;;;;;;10207176;29;20591;-91
2022/01/10 11:04:15;;;;;;;58.80;32.63;;;10.30;67.90;;;;;;10208487;29;20266;-91
2022/01/10 11:09:20;;;;;;;64.37;36.47;;;10.40;75.30;;;;;;10208363;29;20219;-90
2022/01/10 11:14:24;;;;;;;65.50;37.63;;;10.20;72.20;;;;;;10208519;29;20267;-91
2022/01/10 11:19:27;;;;;;;80.83;47.73;;;10.60;73.70;;;;;;10206491;29;20243;-91
2022/01/10 11:24:48;;;;;;;58.40;33.20;;;10.40;67.70;;;;;;10206564;29;20254;-92
2022/01/10 11:29:51;;;;;;;63.53;36.37;;;9.80;78.10;;;;;;10209195;29;20309;-91
2022/01/10 11:35:04;;;;;;;55.90;31.10;;;9.60;76.10;;;;;;10206526;29;20274;-91
2022/01/10 11:40:08;;;;;;;82.77;45.03;;;10.40;69.20;;;;;;10206661;29;20604;-91
2022/01/10 11:45:13;;;;;;;68.17;38.27;;;10.30;71.90;;;;;;10207219;29;20219;-88
2022/01/10 11:50:24;;;;;;;94.60;56.37;;;10.90;75.60;;;;;;10206461;29;20696;-89
2022/01/10 11:55:54;;;;;;;85.20;46.97;;;10.60;67.50;;;;;;10207682;29;20259;-90
2022/01/10 12:01:05;;;;;;;96.13;53.00;;;4.80;99.90;;;;;;10205464;29;20244;-91
2022/01/10 12:06:07;;;;;;;59.23;35.07;;;7.60;85.20;;;;;;10197119;29;20262;-90
2022/01/10 12:11:12;;;;;;;65.87;39.70;;;8.80;92.90;;;;;;10206777;29;20696;-91
2022/01/10 12:16:15;;;;;;;86.40;53.33;;;8.90;88.20;;;;;;10213739;29;20711;-90
2022/01/10 12:21:17;;;;;;;54.77;34.00;;;9.50;82.10;;;;;;10211665;29;20275;-90
2022/01/10 12:26:22;;;;;;;99.37;59.63;;;9.70;94.70;;;;;;10212178;29;20251;-89
2022/01/10 12:31:26;;;;;;;82.27;44.17;;;9.70;80.50;;;;;;10212667;29;20271;-91
2022/01/10 12:36:31;;;;;;;80.47;44.83;;;9.80;94.00;;;;;;10213215;29;20255;-90
2022/01/10 12:41:33;;;;;;;77.77;45.20;;;9.10;94.70;;;;;;10207431;29;20247;-91
2022/01/10 12:46:36;;;;;;;56.20;34.40;;;8.70;93.50;;;;;;10227180;29;20254;-90
2022/01/10 12:51:49;;;;;;;104.27;56.20;;;9.20;99.90;;;;;;10226211;29;20251;-91
2022/01/10 12:56:51;;;;;;;84.80;47.90;;;9.70;96.60;;;;;;10234531;29;20645;-92
2022/01/10 13:01:57;;;;;;;71.43;37.80;;;9.40;96.10;;;;;;10228493;29;20268;-92
2022/01/10 13:07:03;;;;;;;49.67;29.93;;;10.20;99.90;;;;;;10211433;29;20268;-91
2022/01/10 13:17:28;;;;;;;68.93;39.20;;;11.50;94.70;;;;;;10206696;29;20711;-91
2022/01/10 13:22:34;;;;;;;58.23;33.87;;;11.50;93.70;;;;;;10209907;29;20784;-90
2022/01/10 13:27:37;;;;;;;53.53;33.40;;;11.90;93.40;;;;;;10209402;29;20711;-89
2022/01/10 13:32:45;;;;;;;74.50;41.10;;;11.80;95.80;;;;;;10207910;29;20239;-90
2022/01/10 13:37:51;;;;;;;52.57;31.10;;;4.00;96.20;;;;;;10208874;29;20730;-91
2022/01/10 13:42:53;;;;;;;64.17;37.20;;;10.40;99.30;;;;;;10210895;29;20242;-91
2022/01/10 13:48:00;;;;;;;66.90;37.27;;;11.00;80.80;;;;;;10210621;29;20831;-91
2022/01/10 13:53:14;;;;;;;68.67;37.00;;;11.00;81.00;;;;;;10210380;29;20250;-90
2022/01/10 13:58:25;;;;;;;69.50;36.43;;;10.50;76.70;;;;;;10211229;29;20302;-91
2022/01/10 14:03:30;;;;;;;54.90;33.20;;;8.10;76.20;;;;;;10209696;29;20306;-91
2022/01/10 14:08:34;;;;;;;59.67;33.23;;;10.40;83.70;;;;;;10209185;29;20246;-91
2022/01/10 14:13:37;;;;;;;59.73;32.93;;;10.70;75.70;;;;;;10210667;29;20296;-91
2022/01/10 14:18:40;;;;;;;62.40;31.73;;;9.40;87.70;;;;;;10210152;29;20262;-91
2022/01/10 14:23:43;;;;;;;60.30;32.07;;;7.70;90.00;;;;;;10208872;29;20676;-91
2022/01/10 14:28:47;;;;;;;59.80;33.93;;;6.60;92.90;;;;;;10209867;29;20214;-91
2022/01/10 14:33:50;;;;;;;58.30;32.90;;;6.30;97.70;;;;;;10207192;29;20306;-91
2022/01/10 14:38:53;;;;;;;55.23;31.57;;;9.00;96.00;;;;;;10208126;29;20775;-91
2022/01/10 14:43:55;;;;;;;54.70;31.03;;;8.90;94.90;;;;;;10207895;29;20218;-92
2022/01/10 14:48:58;;;;;;;53.50;32.43;;;9.40;88.20;;;;;;10209120;29;20242;-91
2022/01/10 14:54:00;;;;;;;55.30;30.57;;;9.10;73.60;;;;;;10207459;29;20254;-91
2022/01/10 14:59:03;;;;;;;58.47;31.20;;;8.70;94.90;;;;;;10209997;29;20242;-91
2022/01/10 15:04:06;;;;;;;51.27;29.83;;;9.70;94.10;;;;;;10207447;29;20278;-91
2022/01/10 15:09:08;;;;;;;46.37;28.77;;;10.40;92.70;;;;;;10208923;29;20696;-92
2022/01/10 15:14:11;;;;;;;45.77;27.47;;;10.10;90.00;;;;;;10208773;29;20317;-91
2022/01/10 15:19:14;;;;;;;49.60;29.83;;;9.90;89.60;;;;;;10208400;29;20246;-90
2022/01/10 15:24:16;;;;;;;66.47;32.07;;;7.90;99.90;;;;;;10205858;29;20250;-88
2022/01/10 15:29:19;;;;;;;39.27;20.10;;;1.20;91.40;;;;;;10207643;29;20650;-89
2022/01/10 15:34:21;;;;;;;36.93;21.60;;;0.00;99.90;;;;;;10236806;28;20294;-89
2022/01/10 15:39:24;;;;;;;35.10;21.40;;;4.70;99.90;;;;;;10207025;29;20656;-89
2022/01/10 15:44:26;;;;;;;33.63;19.53;;;7.50;91.00;;;;;;10210698;29;20250;-80
2022/01/10 15:49:29;;;;;;;41.47;25.67;;;8.80;99.90;;;;;;10213539;29;20805;-80
2022/01/10 15:54:32;;;;;;;28.97;17.93;;;8.90;95.90;;;;;;10217173;23;20819;-81
2022/01/10 15:59:35;;;;;;;25.87;17.33;;;9.70;98.90;;;;;;10117066;29;20236;-80
2022/01/10 16:04:39;;;;;;;27.50;18.20;;;9.60;99.90;;;;;;10118599;29;20249;-81
2022/01/10 16:09:42;;;;;;;28.10;17.63;;;10.80;97.50;;;;;;10167172;29;20280;-81
2022/01/10 16:14:45;;;;;;;26.77;17.87;;;10.80;91.70;;;;;;10148718;29;20586;-80
2022/01/10 16:19:48;;;;;;;30.13;18.93;;;11.50;94.90;;;;;;10154565;29;20242;-81
2022/01/10 16:24:51;;;;;;;29.10;18.77;;;11.90;93.10;;;;;;10136179;29;20306;-81
2022/01/10 16:29:54;;;;;;;28.87;17.80;;;11.90;96.00;;;;;;10149953;29;20245;-81
2022/01/10 16:34:56;;;;;;;26.50;16.57;;;12.80;86.30;;;;;;10140323;29;20346;-80
2022/01/10 16:39:59;;;;;;;29.97;18.77;;;12.50;83.90;;;;;;10135678;29;20243;-81
2022/01/10 16:45:02;;;;;;;27.53;17.83;;;12.10;76.10;;;;;;10151372;29;20249;-81
2022/01/10 16:50:08;;;;;;;30.77;17.67;;;12.40;84.80;;;;;;10155604;29;20323;-81
2022/01/10 16:55:11;;;;;;;22.87;14.70;;;12.50;88.90;;;;;;9501302;29;10000699;-80
2022/01/10 17:00:15;;;;;;;30.87;16.90;;;12.40;87.50;;;;;;10174327;29;20727;-81
2022/01/10 17:05:17;;;;;;;23.63;16.13;;;12.10;80.00;;;;;;10202374;29;20241;-81
2022/01/10 17:10:21;;;;;;;21.70;13.70;;;10.40;89.20;;;;;;10204401;29;20248;-81
2022/01/10 17:15:25;;;;;;;25.43;15.47;;;11.80;86.60;;;;;;10189449;29;20265;-81
2022/01/10 17:20:27;;;;;;;22.67;15.03;;;11.30;80.80;;;;;;10211000;29;20270;-81
2022/01/10 17:25:31;;;;;;;21.07;13.63;;;11.10;95.40;;;;;;10205674;29;20312;-81
2022/01/10 17:30:34;;;;;;;21.83;14.00;;;11.60;96.50;;;;;;10207302;29;20244;-81
2022/01/10 17:35:38;;;;;;;21.43;13.30;;;11.70;95.10;;;;;;10188656;29;20258;-81
2022/01/10 17:40:41;;;;;;;35.37;22.23;;;11.50;95.00;;;;;;10194089;29;20290;-81
2022/01/10 17:45:44;;;;;;;23.67;14.97;;;11.50;80.90;;;;;;10174993;29;20249;-81
2022/01/10 17:50:51;;;;;;;20.07;13.83;;;11.60;97.60;;;;;;10186297;29;20301;-81
2022/01/10 17:55:53;;;;;;;30.33;17.90;;;11.50;97.50;;;;;;10172474;29;20673;-81
2022/01/10 18:00:56;;;;;;;29.97;17.83;;;10.20;92.40;;;;;;10195682;29;20255;-81
2022/01/10 18:05:58;;;;;;;27.03;18.23;;;9.50;99.90;;;;;;10168450;29;20660;-81
2022/01/10 18:11:01;;;;;;;27.43;16.20;;;10.30;99.90;;;;;;10173402;29;20275;-80
2022/01/10 18:16:03;;;;;;;21.83;14.00;;;9.70;99.90;;;;;;10192521;29;20665;-81
2022/01/10 18:21:06;;;;;;;30.57;19.53;;;11.30;99.90;;;;;;10185125;29;20301;-81
2022/01/10 18:26:09;;;;;;;19.00;12.77;;;10.40;97.50;;;;;;10186231;29;20649;-81
2022/01/10 18:31:11;;;;;;;35.50;20.97;;;11.30;99.90;;;;;;10172821;29;20246;-81
2022/01/10 18:36:14;;;;;;;22.40;14.93;;;10.10;86.20;;;;;;10166502;29;20265;-81
2022/01/10 18:41:16;;;;;;;32.07;19.30;;;10.50;99.90;;;;;;10166759;29;20255;-81
2022/01/10 18:46:20;;;;;;;19.50;12.67;;;9.80;99.90;;;;;;10201807;29;20308;-82
2022/01/10 18:51:23;;;;;;;28.60;17.13;;;11.10;99.90;;;;;;10190118;29;20300;-81
2022/01/10 18:56:25;;;;;;;27.27;16.00;;;11.30;99.90;;;;;;10207364;29;20315;-81
2022/01/10 19:01:28;;;;;;;21.90;14.63;;;11.00;99.90;;;;;;10205897;29;20259;-81
2022/01/10 19:06:31;;;;;;;26.03;15.87;;;11.10;99.90;;;;;;10218638;29;20273;-82
2022/01/10 19:11:34;;;;;;;16.50;11.53;;;11.40;99.90;;;;;;10205324;29;20751;-82
2022/01/10 19:16:38;;;;;;;21.77;13.33;;;11.40;99.90;;;;;;10190560;29;20254;-81
2022/01/10 19:21:40;;;;;;;56.17;31.10;;;11.50;99.90;;;;;;10206150;29;20270;-81
2022/01/10 19:26:43;;;;;;;51.50;30.90;;;10.60;82.60;;;;;;10185418;29;20614;-81
2022/01/10 19:31:45;;;;;;;24.97;16.23;;;8.90;98.30;;;;;;10202668;29;20267;-82
2022/01/10 19:36:48;;;;;;;28.27;17.40;;;7.90;99.90;;;;;;10188975;29;20364;-81
2022/01/10 19:41:51;;;;;;;34.90;20.90;;;9.70;99.90;;;;;;10189338;29;20269;-80
2022/01/10 19:46:53;;;;;;;55.70;31.27;;;10.20;99.90;;;;;;10188606;29;20208;-81
2022/01/10 19:51:56;;;;;;;45.40;25.37;;;9.40;99.90;;;;;;10206711;29;20245;-81
2022/01/10 19:57:01;;;;;;;21.70;14.13;;;9.90;99.90;;;;;;10203069;29;20323;-81
2022/01/10 20:02:05;;;;;;;25.83;14.80;;;9.90;99.90;;;;;;10201466;29;20230;-81
2022/01/10 20:07:08;;;;;;;25.43;15.37;;;10.20;99.90;;;;;;10208897;29;20236;-81
2022/01/10 20:12:10;;;;;;;31.40;17.57;;;10.00;99.90;;;;;;10194447;29;20248;-81
2022/01/10 20:17:13;;;;;;;28.17;16.33;;;9.90;99.90;;;;;;10195576;29;20310;-81
2022/01/10 20:22:15;;;;;;;37.90;19.10;;;9.30;99.90;;;;;;10197217;29;20651;-81
2022/01/10 20:27:19;;;;;;;52.53;27.80;;;8.90;99.90;;;;;;10221116;28;20243;-81
2022/01/10 20:32:22;;;;;;;31.93;18.03;;;8.50;99.90;;;;;;10209475;29;20244;-81
2022/01/10 20:37:24;;;;;;;47.90;23.93;;;8.30;99.90;;;;;;10190619;29;20267;-80
2022/01/10 20:42:30;;;;;;;36.53;20.77;;;8.10;99.90;;;;;;10212629;29;20203;-80
2022/01/10 20:47:33;;;;;;;34.77;19.23;;;8.20;99.90;;;;;;10195983;29;20242;-80
2022/01/10 20:52:37;;;;;;;39.43;22.00;;;8.40;99.90;;;;;;10219048;28;20269;-80
2022/01/10 20:57:39;;;;;;;32.43;17.73;;;8.40;99.90;;;;;;10198587;29;20322;-80
2022/01/10 21:02:41;;;;;;;33.37;19.17;;;8.60;99.90;;;;;;10211789;29;20239;-80
2022/01/10 21:07:44;;;;;;;26.97;16.17;;;8.80;99.90;;;;;;10211826;29;20305;-81
2022/01/10 21:12:47;;;;;;;31.87;18.47;;;8.90;99.90;;;;;;10208993;29;20328;-81
2022/01/10 21:17:50;;;;;;;32.87;18.53;;;9.50;99.90;;;;;;10224834;29;20264;-81
2022/01/10 21:22:53;;;;;;;24.10;15.90;;;9.50;99.90;;;;;;10211676;29;20291;-81
2022/01/10 21:27:55;;;;;;;23.83;14.80;;;9.50;99.90;;;;;;10216131;29;20242;-81
2022/01/10 21:32:58;;;;;;;24.00;15.50;;;9.40;99.90;;;;;;10197536;29;20310;-81
2022/01/10 21:38:01;;;;;;;28.17;16.97;;;9.60;99.90;;;;;;10209874;29;20269;-81
2022/01/10 21:43:05;;;;;;;33.17;18.87;;;9.90;99.90;;;;;;10208466;29;20619;-81
2022/01/10 21:48:07;;;;;;;28.33;16.40;;;9.90;99.90;;;;;;10211252;29;20704;-81
2022/01/10 21:53:10;;;;;;;38.73;21.40;;;9.70;99.90;;;;;;10198894;29;20609;-81
2022/01/10 21:58:13;;;;;;;31.87;18.70;;;9.20;99.90;;;;;;10193980;29;20712;-81
2022/01/10 22:03:15;;;;;;;30.43;17.57;;;9.00;99.90;;;;;;10209981;29;20555;-81
2022/01/10 22:08:18;;;;;;;24.60;16.10;;;9.00;99.90;;;;;;10209989;29;20242;-81
2022/01/10 22:13:21;;;;;;;25.63;16.57;;;9.50;99.90;;;;;;10208646;29;20307;-81
2022/01/10 22:18:26;;;;;;;26.70;15.63;;;9.80;99.90;;;;;;10207367;29;20259;-81
2022/01/10 22:23:28;;;;;;;31.47;18.30;;;9.50;99.90;;;;;;10200885;29;20233;-80
2022/01/10 22:28:33;;;;;;;27.20;16.63;;;9.80;99.90;;;;;;10203043;29;20240;-80
2022/01/10 22:33:36;;;;;;;23.57;16.43;;;10.00;99.90;;;;;;10174722;29;20235;-80
2022/01/10 22:38:39;;;;;;;25.37;16.27;;;9.90;99.90;;;;;;10177802;29;20267;-80
2022/01/10 22:43:43;;;;;;;26.27;16.77;;;9.90;99.90;;;;;;10177044;29;20276;-81
2022/01/10 22:48:45;;;;;;;26.30;16.23;;;9.90;99.90;;;;;;10195522;29;20245;-81
2022/01/10 22:53:48;;;;;;;25.53;15.60;;;9.90;99.90;;;;;;10192462;29;20274;-81
2022/01/10 22:58:51;;;;;;;28.57;17.30;;;10.00;99.90;;;;;;10192666;29;20307;-81
2022/01/10 23:03:53;;;;;;;29.20;17.10;;;10.10;99.90;;;;;;10194935;29;20231;-81
2022/01/10 23:08:56;;;;;;;30.50;18.27;;;9.90;99.90;;;;;;10187239;29;20250;-81
2022/01/10 23:13:58;;;;;;;25.20;16.97;;;9.90;99.90;;;;;;10180307;29;21006;-81
2022/01/10 23:19:01;;;;;;;26.50;16.63;;;10.00;99.90;;;;;;10187059;29;20257;-81
2022/01/10 23:24:03;;;;;;;25.67;16.60;;;10.00;99.90;;;;;;10188976;29;20272;-80
2022/01/10 23:29:06;;;;;;;25.70;16.33;;;10.10;99.90;;;;;;10189185;29;20228;-81
2022/01/10 23:34:10;;;;;;;26.50;16.33;;;10.20;99.90;;;;;;10188333;29;20290;-80
2022/01/10 23:39:13;;;;;;;28.23;15.73;;;10.10;99.90;;;;;;10202714;29;20690;-81
2022/01/10 23:44:15;;;;;;;29.47;17.60;;;10.10;99.90;;;;;;10182819;29;20239;-82
2022/01/10 23:49:18;;;;;;;27.17;16.93;;;10.10;99.90;;;;;;10183768;29;20676;-81
2022/01/10 23:54:21;;;;;;;28.53;17.93;;;10.10;99.90;;;;;;10170096;29;20710;-80
2022/01/10 23:59:24;;;;;;;33.63;18.83;;;10.20;99.90;;;;;;10179496;29;20257;-81
